Time;durP1;ratioP1;P1;durP2;ratioP2;P2;SDS_P1;SDS_P2;PMS_P1;PMS_P2;Temp;Humidity;BMP_temperature;BMP_pressure;BME280_temperature;BME280_humidity;BME280_pressure;Samples;Min_cycle;Max_cycle;Signal;HPM_P1;HPM_P2
2022/06/30 00:00:45;;;;;;;14.13;11.70;;;20.00;99.90;;;;;;2112704;28;20123;-67
2022/06/30 00:01:45;;;;;;;11.55;10.45;;;20.00;99.90;;;;;;2111937;28;20039;-68
2022/06/30 00:02:46;;;;;;;12.27;11.07;;;20.00;99.90;;;;;;2112026;28;20553;-68
2022/06/30 00:03:47;;;;;;;12.65;11.45;;;20.00;99.90;;;;;;2112755;28;20110;-67
2022/06/30 00:04:48;;;;;;;13.63;12.23;;;20.00;99.90;;;;;;2112683;28;20106;-67
2022/06/30 00:05:48;;;;;;;13.40;12.10;;;20.00;99.90;;;;;;2112586;28;20097;-66
2022/06/30 00:06:50;;;;;;;13.25;11.85;;;20.00;99.90;;;;;;2112537;28;20644;-68
2022/06/30 00:07:51;;;;;;;12.80;11.55;;;20.00;99.90;;;;;;2112609;28;20105;-67
2022/06/30 00:08:52;;;;;;;15.90;13.80;;;20.00;99.90;;;;;;2112301;28;20027;-67
2022/06/30 00:09:53;;;;;;;15.15;13.57;;;20.00;99.90;;;;;;2112294;28;20036;-66
2022/06/30 00:10:53;;;;;;;14.90;13.30;;;19.90;99.90;;;;;;2112723;28;20115;-68
2022/06/30 00:11:54;;;;;;;14.73;13.23;;;19.90;99.90;;;;;;2111974;28;20036;-67
2022/06/30 00:12:55;;;;;;;15.30;13.65;;;19.90;99.90;;;;;;2112049;28;20020;-67
2022/06/30 00:13:57;;;;;;;15.98;14.27;;;19.90;99.90;;;;;;2112663;28;20106;-67
2022/06/30 00:14:57;;;;;;;15.02;13.45;;;19.90;99.90;;;;;;2111809;28;20039;-66
2022/06/30 00:15:58;;;;;;;17.55;15.73;;;19.90;99.90;;;;;;2111939;28;20123;-67
2022/06/30 00:16:59;;;;;;;15.77;14.18;;;19.90;99.90;;;;;;2112530;28;20028;-68
2022/06/30 00:17:59;;;;;;;15.25;13.70;;;19.90;99.90;;;;;;2112629;28;20023;-67
2022/06/30 00:19:00;;;;;;;14.50;13.07;;;19.90;99.90;;;;;;2112473;28;20080;-67
2022/06/30 00:20:01;;;;;;;14.00;12.38;;;19.80;99.90;;;;;;2113777;28;20076;-67
2022/06/30 00:21:02;;;;;;;13.98;12.68;;;19.80;99.90;;;;;;2113451;28;20035;-67
2022/06/30 00:22:06;;;;;;;14.27;12.80;;;19.80;99.90;;;;;;2113604;28;20039;-68
2022/06/30 00:23:07;;;;;;;13.63;12.32;;;19.80;99.90;;;;;;2114241;28;20110;-68
2022/06/30 00:24:08;;;;;;;13.75;12.45;;;19.80;99.90;;;;;;2114152;28;20416;-66
2022/06/30 00:25:13;;;;;;;13.63;12.32;;;19.80;99.90;;;;;;2114358;28;20061;-68
2022/06/30 00:26:14;;;;;;;13.63;12.32;;;19.80;99.90;;;;;;2113551;28;20653;-66
2022/06/30 00:27:14;;;;;;;14.13;12.73;;;19.80;99.90;;;;;;2113480;28;20027;-67
2022/06/30 00:28:15;;;;;;;13.73;12.40;;;19.80;99.90;;;;;;2113989;28;20400;-67
2022/06/30 00:29:16;;;;;;;13.90;12.43;;;19.80;99.90;;;;;;2113734;28;20027;-67
2022/06/30 00:30:17;;;;;;;13.07;11.70;;;19.80;99.90;;;;;;2114236;28;20019;-67
2022/06/30 00:31:18;;;;;;;13.55;12.20;;;19.80;99.90;;;;;;2105077;28;20600;-67
2022/06/30 00:32:19;;;;;;;14.07;12.77;;;19.80;99.90;;;;;;2105128;28;20614;-68
2022/06/30 00:33:19;;;;;;;14.65;12.52;;;19.80;99.90;;;;;;2114179;28;20028;-66
2022/06/30 00:34:20;;;;;;;14.90;13.02;;;19.80;99.90;;;;;;2114208;28;20035;-68
2022/06/30 00:35:21;;;;;;;15.23;12.80;;;19.80;99.90;;;;;;2114271;28;20020;-68
2022/06/30 00:36:21;;;;;;;13.85;12.45;;;19.80;99.90;;;;;;2114245;28;20481;-69
2022/06/30 00:37:22;;;;;;;14.15;12.75;;;19.80;99.90;;;;;;2113424;28;20035;-68
2022/06/30 00:38:23;;;;;;;14.20;12.80;;;19.80;99.90;;;;;;2113343;28;20057;-68
2022/06/30 00:39:24;;;;;;;14.60;13.20;;;19.80;99.90;;;;;;2113885;28;20139;-68
2022/06/30 00:40:24;;;;;;;14.30;12.90;;;19.80;99.90;;;;;;2113386;28;20417;-67
2022/06/30 00:41:25;;;;;;;13.98;12.57;;;19.80;99.90;;;;;;2113525;28;20028;-67
2022/06/30 00:42:26;;;;;;;13.35;12.05;;;19.80;99.90;;;;;;2113988;28;20030;-67
2022/06/30 00:43:26;;;;;;;14.68;13.18;;;19.80;99.90;;;;;;2114075;28;20032;-68
2022/06/30 00:44:27;;;;;;;14.07;12.70;;;19.80;99.90;;;;;;2114076;28;20111;-67
2022/06/30 00:45:28;;;;;;;13.60;12.30;;;19.80;99.90;;;;;;2113980;28;20388;-68
2022/06/30 00:46:29;;;;;;;13.55;12.25;;;19.80;99.90;;;;;;2114115;28;20023;-70
2022/06/30 00:47:30;;;;;;;14.20;12.75;;;19.80;99.90;;;;;;2113419;28;20042;-67
2022/06/30 00:48:30;;;;;;;14.50;13.00;;;19.80;99.90;;;;;;2113295;28;20108;-67
2022/06/30 00:49:31;;;;;;;13.95;12.65;;;19.80;99.90;;;;;;2113846;28;20111;-67
2022/06/30 00:50:32;;;;;;;13.90;12.45;;;19.80;99.90;;;;;;2114274;28;20027;-66
2022/06/30 00:51:33;;;;;;;14.93;13.30;;;19.80;99.90;;;;;;2114428;28;20818;-66
2022/06/30 00:52:36;;;;;;;15.10;13.65;;;19.80;99.90;;;;;;2114251;28;20567;-67
2022/06/30 00:53:41;;;;;;;17.88;15.32;;;19.70;99.90;;;;;;2113468;28;20385;-67
2022/06/30 00:54:43;;;;;;;16.42;14.75;;;19.80;99.90;;;;;;2113464;28;20069;-67
2022/06/30 00:55:46;;;;;;;16.42;14.77;;;19.80;99.90;;;;;;2114066;28;20486;-68
2022/06/30 00:56:47;;;;;;;15.57;14.07;;;19.80;99.90;;;;;;2113459;28;20039;-68
2022/06/30 00:57:49;;;;;;;15.50;14.00;;;19.80;99.90;;;;;;2113238;28;20045;-67
2022/06/30 00:58:52;;;;;;;15.88;14.27;;;19.80;99.90;;;;;;2114016;27;20063;-67
2022/06/30 00:59:56;;;;;;;15.80;14.20;;;19.80;99.90;;;;;;2113834;28;20121;-67
2022/06/30 01:00:58;;;;;;;15.50;13.90;;;19.80;99.90;;;;;;2113425;28;20042;-67
2022/06/30 01:02:00;;;;;;;16.75;15.05;;;19.80;99.90;;;;;;2113437;28;20038;-66
2022/06/30 01:03:02;;;;;;;17.17;15.00;;;19.80;99.90;;;;;;2113945;28;20019;-67
2022/06/30 01:04:02;;;;;;;16.92;14.25;;;19.80;99.90;;;;;;2114071;28;20027;-66
2022/06/30 01:05:04;;;;;;;16.05;14.52;;;19.80;99.90;;;;;;2113341;28;20062;-67
2022/06/30 01:06:06;;;;;;;15.32;13.73;;;19.80;99.90;;;;;;2113469;28;20509;-66
2022/06/30 01:07:06;;;;;;;16.10;14.27;;;19.80;99.90;;;;;;2113364;28;20027;-66
2022/06/30 01:08:07;;;;;;;15.70;14.02;;;19.70;99.90;;;;;;2113497;28;20042;-67
2022/06/30 01:09:09;;;;;;;15.30;13.80;;;19.70;99.90;;;;;;2113628;28;20032;-68
2022/06/30 01:12:49;;;;;;;17.42;15.02;;;19.70;99.90;;;;;;2113999;28;20034;-68
2022/06/30 01:13:50;;;;;;;15.90;14.30;;;19.70;99.90;;;;;;2113736;28;20028;-69
2022/06/30 01:14:53;;;;;;;14.70;12.70;;;19.70;99.90;;;;;;2113933;28;20488;-67
2022/06/30 01:15:54;;;;;;;14.82;13.32;;;19.70;99.90;;;;;;2114366;28;20206;-68
2022/06/30 01:16:54;;;;;;;15.02;13.52;;;19.70;99.90;;;;;;2114096;28;20031;-66
2022/06/30 01:17:55;;;;;;;15.18;13.65;;;19.70;99.90;;;;;;2113757;28;20122;-66
2022/06/30 01:18:56;;;;;;;15.13;13.55;;;19.70;99.90;;;;;;2113620;28;20497;-69
2022/06/30 01:19:57;;;;;;;14.85;13.43;;;19.70;99.90;;;;;;2114101;28;20607;-68
2022/06/30 01:20:57;;;;;;;14.50;13.10;;;19.70;99.90;;;;;;2114380;28;20089;-66
2022/06/30 01:22:02;;;;;;;14.73;13.18;;;19.70;99.90;;;;;;2114560;28;20047;-67
2022/06/30 01:23:04;;;;;;;17.85;15.93;;;19.70;99.90;;;;;;2114057;28;20034;-67
2022/06/30 01:24:06;;;;;;;15.57;13.98;;;19.60;99.90;;;;;;2113743;28;20666;-67
2022/06/30 01:25:08;;;;;;;14.93;13.40;;;19.60;99.90;;;;;;2114230;27;20029;-66
2022/06/30 01:26:08;;;;;;;15.93;14.27;;;19.60;99.90;;;;;;2114259;28;20023;-67
2022/06/30 01:27:09;;;;;;;15.93;14.25;;;19.60;99.90;;;;;;2114264;28;20027;-66
2022/06/30 01:28:10;;;;;;;16.23;14.52;;;19.60;99.90;;;;;;2114186;28;20393;-66
2022/06/30 01:29:10;;;;;;;16.80;15.00;;;19.60;99.90;;;;;;2113754;28;20032;-66
2022/06/30 01:30:11;;;;;;;17.45;14.60;;;19.60;99.90;;;;;;2113122;28;20485;-66
2022/06/30 01:31:12;;;;;;;16.70;14.95;;;19.60;99.90;;;;;;2103569;28;20460;-66
2022/06/30 01:32:13;;;;;;;15.27;13.77;;;19.60;99.90;;;;;;2113062;28;20023;-66
2022/06/30 01:33:14;;;;;;;15.00;13.40;;;19.60;99.90;;;;;;2113435;28;20020;-66
2022/06/30 01:34:15;;;;;;;15.07;13.48;;;19.60;99.90;;;;;;2113656;28;20561;-66
2022/06/30 01:35:16;;;;;;;15.05;13.55;;;19.60;99.90;;;;;;2113573;28;20032;-65
2022/06/30 01:36:17;;;;;;;15.55;13.75;;;19.50;99.90;;;;;;2113628;28;20637;-66
2022/06/30 01:37:18;;;;;;;14.20;12.80;;;19.50;99.90;;;;;;2113019;28;20019;-68
2022/06/30 01:38:19;;;;;;;14.38;12.93;;;19.50;99.90;;;;;;2113101;28;20012;-67
2022/06/30 01:39:20;;;;;;;14.75;13.30;;;19.50;99.90;;;;;;2113403;28;20046;-67
2022/06/30 01:40:23;;;;;;;14.43;12.93;;;19.50;99.90;;;;;;2112946;28;20038;-72
2022/06/30 01:41:23;;;;;;;14.73;13.27;;;19.50;99.90;;;;;;2113036;28;20024;-66
2022/06/30 01:42:24;;;;;;;17.42;14.38;;;19.50;99.90;;;;;;2113826;28;20473;-67
2022/06/30 01:43:25;;;;;;;15.20;13.65;;;19.40;99.90;;;;;;2113647;28;20032;-67
2022/06/30 01:44:25;;;;;;;14.65;13.15;;;19.40;99.90;;;;;;2112915;28;20134;-67
2022/06/30 01:45:26;;;;;;;14.40;12.95;;;19.40;99.90;;;;;;2113065;28;20066;-67
2022/06/30 01:46:27;;;;;;;14.85;13.35;;;19.40;99.90;;;;;;2113748;28;20131;-67
2022/06/30 01:47:28;;;;;;;13.82;12.43;;;19.40;99.90;;;;;;2113606;28;20027;-68
2022/06/30 01:48:28;;;;;;;14.40;12.93;;;19.40;99.90;;;;;;2113517;27;20028;-68
2022/06/30 01:49:29;;;;;;;15.30;13.75;;;19.40;99.90;;;;;;2113312;28;20028;-68
2022/06/30 01:50:31;;;;;;;14.98;13.50;;;19.40;99.90;;;;;;2113113;28;20417;-67
2022/06/30 01:51:31;;;;;;;15.00;13.50;;;19.40;99.90;;;;;;2113072;28;20409;-66
2022/06/30 01:52:32;;;;;;;14.75;13.25;;;19.40;99.90;;;;;;2112990;28;20102;-66
2022/06/30 01:53:33;;;;;;;14.50;13.00;;;19.40;99.90;;;;;;2113186;28;20048;-68
2022/06/30 01:54:33;;;;;;;14.15;12.73;;;19.40;99.90;;;;;;2114055;28;20477;-67
2022/06/30 01:55:34;;;;;;;14.85;13.32;;;19.40;99.90;;;;;;2113985;28;20027;-68
2022/06/30 01:56:38;;;;;;;13.70;12.40;;;19.40;99.90;;;;;;2114404;28;20024;-68
2022/06/30 01:57:40;;;;;;;14.65;13.25;;;19.40;99.90;;;;;;2113717;28;20583;-68
2022/06/30 01:58:41;;;;;;;14.45;12.98;;;19.40;99.90;;;;;;2113623;28;20027;-66
2022/06/30 01:59:42;;;;;;;15.10;13.60;;;19.40;99.90;;;;;;2114088;28;20124;-66
2022/06/30 02:00:42;;;;;;;14.05;12.70;;;19.50;99.90;;;;;;2113360;28;20028;-66
2022/06/30 02:01:43;;;;;;;14.10;12.70;;;19.40;99.90;;;;;;2113362;28;20055;-66
2022/06/30 02:02:45;;;;;;;14.45;13.05;;;19.40;99.90;;;;;;2114141;28;20433;-66
2022/06/30 02:03:45;;;;;;;14.98;13.48;;;19.50;99.90;;;;;;2113954;28;20065;-66
2022/06/30 02:04:50;;;;;;;14.02;12.65;;;19.40;99.90;;;;;;2114055;28;20111;-66
2022/06/30 02:05:51;;;;;;;14.70;13.23;;;19.50;99.90;;;;;;2113999;28;20023;-66
2022/06/30 02:06:52;;;;;;;15.55;13.95;;;19.50;99.90;;;;;;2113762;28;20080;-66
2022/06/30 02:07:53;;;;;;;15.40;13.88;;;19.40;99.90;;;;;;2113205;28;20081;-67
2022/06/30 02:08:53;;;;;;;14.82;13.32;;;19.50;99.90;;;;;;2113249;28;20027;-67
2022/06/30 02:09:54;;;;;;;14.90;13.35;;;19.50;99.90;;;;;;2116214;28;20024;-67
2022/06/30 02:10:55;;;;;;;14.98;13.48;;;19.50;99.90;;;;;;2113592;28;20388;-67
2022/06/30 02:12:45;;;;;;;14.55;13.10;;;19.50;99.90;;;;;;2113997;28;20023;-68
2022/06/30 02:13:16;;;;;;;13.80;12.38;;;19.50;99.90;;;;;;2113759;28;20024;-68
2022/06/30 02:14:18;;;;;;;16.65;14.25;;;19.50;99.90;;;;;;2113569;28;20047;-66
2022/06/30 02:15:21;;;;;;;14.65;13.15;;;19.50;99.90;;;;;;2113338;28;20031;-67
2022/06/30 02:16:22;;;;;;;14.10;12.73;;;19.50;99.90;;;;;;2113414;28;20471;-68
2022/06/30 02:17:23;;;;;;;13.15;11.55;;;19.50;99.90;;;;;;2113627;28;20024;-67
2022/06/30 02:18:24;;;;;;;13.32;12.02;;;19.50;99.90;;;;;;2112897;28;20532;-68
2022/06/30 02:19:24;;;;;;;13.73;12.38;;;19.50;99.90;;;;;;2112546;28;20020;-66
2022/06/30 02:20:25;;;;;;;13.35;12.05;;;19.50;99.90;;;;;;2113435;28;20019;-66
2022/06/30 02:21:26;;;;;;;13.68;11.65;;;19.50;99.90;;;;;;2112749;28;20031;-67
2022/06/30 02:22:27;;;;;;;14.32;11.70;;;19.50;99.90;;;;;;2112836;28;20023;-67
2022/06/30 02:23:27;;;;;;;13.35;11.98;;;19.50;99.90;;;;;;2113366;28;20031;-66
2022/06/30 02:24:28;;;;;;;13.13;11.88;;;19.50;99.90;;;;;;2113320;28;20035;-66
2022/06/30 02:25:31;;;;;;;13.70;11.90;;;19.50;99.90;;;;;;2104022;28;20637;-66
2022/06/30 02:26:32;;;;;;;12.70;11.50;;;19.50;99.90;;;;;;2104620;28;20047;-67
2022/06/30 02:27:32;;;;;;;12.82;11.50;;;19.50;99.90;;;;;;2113305;28;20024;-66
2022/06/30 02:28:33;;;;;;;12.63;11.27;;;19.50;99.90;;;;;;2113093;28;20389;-67
2022/06/30 02:29:34;;;;;;;14.82;13.23;;;19.50;99.90;;;;;;2112894;28;20032;-66
2022/06/30 02:30:35;;;;;;;15.02;13.50;;;19.50;99.90;;;;;;2113204;28;20069;-67
2022/06/30 02:31:35;;;;;;;14.15;12.75;;;19.50;99.90;;;;;;2112584;28;20062;-67
2022/06/30 02:32:36;;;;;;;12.98;11.73;;;19.50;99.90;;;;;;2104079;28;20028;-66
2022/06/30 02:33:36;;;;;;;13.98;11.73;;;19.50;99.90;;;;;;2112585;28;20088;-66
2022/06/30 02:34:37;;;;;;;12.75;11.45;;;19.50;99.90;;;;;;2113254;28;20456;-66
2022/06/30 02:35:38;;;;;;;13.43;12.13;;;19.50;99.90;;;;;;2113219;28;20032;-66
2022/06/30 02:36:38;;;;;;;13.15;11.88;;;19.50;99.90;;;;;;2113100;28;20489;-66
2022/06/30 02:37:39;;;;;;;13.60;12.25;;;19.50;99.90;;;;;;2113128;28;20031;-67
2022/06/30 02:38:40;;;;;;;12.88;11.65;;;19.50;99.90;;;;;;2113065;27;20032;-65
2022/06/30 02:39:41;;;;;;;12.90;11.60;;;19.50;99.90;;;;;;2113032;28;20034;-66
2022/06/30 02:40:42;;;;;;;13.32;11.93;;;19.50;99.90;;;;;;2113548;28;20092;-66
2022/06/30 02:41:42;;;;;;;12.40;11.10;;;19.50;99.90;;;;;;2113419;27;20473;-66
2022/06/30 02:42:44;;;;;;;13.55;12.25;;;19.50;99.90;;;;;;2113226;28;20019;-66
2022/06/30 02:43:45;;;;;;;12.60;11.40;;;19.50;99.90;;;;;;2113413;28;20036;-66
2022/06/30 02:44:46;;;;;;;12.57;11.38;;;19.50;99.90;;;;;;2113213;28;20917;-68
2022/06/30 02:45:47;;;;;;;17.38;13.93;;;19.50;99.90;;;;;;2112631;28;20032;-67
2022/06/30 02:46:50;;;;;;;14.07;12.68;;;19.50;99.90;;;;;;2112700;28;20032;-66
2022/06/30 02:47:51;;;;;;;17.30;13.77;;;19.50;99.90;;;;;;2113284;28;20027;-65
2022/06/30 02:48:52;;;;;;;14.90;12.73;;;19.50;99.90;;;;;;2112994;28;20105;-67
2022/06/30 02:49:52;;;;;;;14.73;13.23;;;19.50;99.90;;;;;;2112896;28;20723;-68
2022/06/30 02:50:53;;;;;;;14.88;13.18;;;19.50;99.90;;;;;;2113040;28;20122;-66
2022/06/30 02:51:53;;;;;;;15.23;13.65;;;19.50;99.90;;;;;;2113106;28;20122;-67
2022/06/30 02:52:54;;;;;;;17.77;14.55;;;19.50;99.90;;;;;;2113066;28;20026;-66
2022/06/30 02:53:55;;;;;;;19.83;15.15;;;19.50;99.90;;;;;;2113270;28;20050;-66
2022/06/30 02:54:56;;;;;;;15.60;14.00;;;19.40;99.90;;;;;;2113318;28;20062;-66
2022/06/30 02:55:56;;;;;;;16.30;14.60;;;19.40;99.90;;;;;;2112804;28;20096;-69
2022/06/30 02:56:57;;;;;;;15.20;13.70;;;19.40;99.90;;;;;;2112940;28;20062;-67
2022/06/30 02:57:58;;;;;;;18.17;15.75;;;19.40;99.90;;;;;;2113315;28;20032;-66
2022/06/30 02:58:58;;;;;;;16.73;14.20;;;19.40;99.90;;;;;;2113302;28;20031;-66
2022/06/30 02:59:59;;;;;;;16.15;14.45;;;19.40;99.90;;;;;;2112471;28;20020;-66
2022/06/30 03:01:00;;;;;;;16.00;14.30;;;19.40;99.90;;;;;;2112842;28;20059;-66
2022/06/30 03:02:00;;;;;;;15.27;13.77;;;19.40;99.90;;;;;;2113472;28;20031;-67
2022/06/30 03:03:01;;;;;;;15.27;13.68;;;19.40;99.90;;;;;;2113480;28;20035;-66
2022/06/30 03:04:03;;;;;;;15.75;14.13;;;19.40;99.90;;;;;;2104358;28;20038;-67
2022/06/30 03:05:04;;;;;;;14.23;12.85;;;19.30;99.90;;;;;;2104538;28;20062;-66
2022/06/30 03:06:05;;;;;;;15.50;13.90;;;19.30;99.90;;;;;;2113440;28;20039;-66
2022/06/30 03:07:05;;;;;;;14.65;13.13;;;19.30;99.90;;;;;;2113420;28;20095;-66
2022/06/30 03:08:06;;;;;;;14.18;12.68;;;19.30;99.90;;;;;;2113384;28;20745;-67
2022/06/30 03:09:07;;;;;;;13.73;12.43;;;19.30;99.90;;;;;;2113059;28;20248;-65
2022/06/30 03:10:08;;;;;;;13.70;12.30;;;19.30;99.90;;;;;;2113604;28;20035;-66
2022/06/30 03:11:16;;;;;;;14.02;12.63;;;19.30;99.90;;;;;;2112766;28;20035;-66
2022/06/30 03:12:16;;;;;;;14.48;12.75;;;19.30;99.90;;;;;;2112779;28;20374;-66
2022/06/30 03:13:17;;;;;;;14.05;12.65;;;19.30;99.90;;;;;;2113318;28;20034;-67
2022/06/30 03:14:18;;;;;;;14.00;12.18;;;19.30;99.90;;;;;;2113271;28;20035;-67
2022/06/30 03:15:19;;;;;;;12.95;11.65;;;19.30;99.90;;;;;;2113372;28;20039;-66
2022/06/30 03:16:20;;;;;;;14.15;11.73;;;19.40;99.90;;;;;;2113244;27;20062;-66
2022/06/30 03:17:21;;;;;;;13.15;11.85;;;19.30;99.90;;;;;;2113164;28;20049;-67
2022/06/30 03:18:22;;;;;;;12.60;11.40;;;19.40;99.90;;;;;;2112886;28;20023;-66
2022/06/30 03:19:23;;;;;;;12.20;11.00;;;19.30;99.90;;;;;;2113095;28;20507;-67
2022/06/30 03:20:24;;;;;;;15.02;13.23;;;19.40;99.90;;;;;;2113321;28;20035;-66
2022/06/30 03:21:24;;;;;;;14.10;12.70;;;19.40;99.90;;;;;;2112351;28;20035;-68
2022/06/30 03:22:25;;;;;;;13.15;11.77;;;19.40;99.90;;;;;;2112505;28;20493;-67
2022/06/30 03:23:26;;;;;;;13.95;12.20;;;19.40;99.90;;;;;;2113308;28;20035;-67
2022/06/30 03:24:27;;;;;;;17.60;12.27;;;19.40;99.90;;;;;;2112968;28;20126;-67
2022/06/30 03:25:27;;;;;;;14.30;11.70;;;19.40;99.90;;;;;;2112508;28;20050;-67
2022/06/30 03:26:28;;;;;;;13.40;11.43;;;19.40;99.90;;;;;;2103847;28;20028;-67
2022/06/30 03:27:29;;;;;;;12.82;10.70;;;19.40;99.90;;;;;;2112354;28;20046;-66
2022/06/30 03:28:29;;;;;;;14.32;10.65;;;19.40;99.90;;;;;;2112705;28;20043;-67
2022/06/30 03:29:30;;;;;;;12.07;10.88;;;19.40;99.90;;;;;;2112845;28;20019;-67
2022/06/30 03:30:31;;;;;;;12.75;11.27;;;19.40;99.90;;;;;;2112435;28;20028;-66
2022/06/30 03:31:32;;;;;;;13.00;11.70;;;19.40;99.90;;;;;;2112471;28;20028;-66
2022/06/30 03:32:33;;;;;;;11.95;10.75;;;19.40;99.90;;;;;;2113101;28;20027;-67
2022/06/30 03:33:34;;;;;;;13.82;11.35;;;19.40;99.90;;;;;;2112624;28;20039;-67
2022/06/30 03:34:35;;;;;;;12.55;11.35;;;19.40;99.90;;;;;;2112703;28;20023;-65
2022/06/30 03:35:36;;;;;;;14.15;12.70;;;19.40;99.90;;;;;;2113958;28;20028;-66
2022/06/30 03:36:36;;;;;;;13.98;11.65;;;19.40;99.90;;;;;;2112672;28;20134;-66
2022/06/30 03:37:37;;;;;;;14.13;11.38;;;19.40;99.90;;;;;;2112743;28;20028;-65
2022/06/30 03:38:38;;;;;;;11.73;10.57;;;19.40;99.90;;;;;;2113227;28;20035;-66
2022/06/30 03:39:39;;;;;;;13.02;11.70;;;19.40;99.90;;;;;;2112966;28;20016;-67
2022/06/30 03:40:39;;;;;;;13.02;11.65;;;19.40;99.90;;;;;;2112979;28;20386;-66
2022/06/30 03:41:40;;;;;;;14.35;12.88;;;19.40;99.90;;;;;;2113182;28;20031;-67
2022/06/30 03:42:41;;;;;;;14.77;12.60;;;19.40;99.90;;;;;;2113188;28;20516;-65
2022/06/30 03:43:42;;;;;;;12.88;11.57;;;19.40;99.90;;;;;;2113825;28;20496;-66
2022/06/30 03:44:43;;;;;;;11.95;10.85;;;19.40;99.90;;;;;;2113525;28;20030;-66
2022/06/30 03:45:44;;;;;;;12.13;10.93;;;19.40;99.90;;;;;;2113469;28;20039;-66
2022/06/30 03:46:44;;;;;;;12.20;11.07;;;19.40;99.90;;;;;;2112847;28;20122;-66
2022/06/30 03:47:45;;;;;;;13.05;11.75;;;19.40;99.90;;;;;;2112625;28;20024;-65
2022/06/30 03:48:46;;;;;;;13.45;11.73;;;19.50;99.90;;;;;;2113038;28;20023;-66
2022/06/30 03:49:46;;;;;;;14.23;12.75;;;19.50;99.90;;;;;;2112758;28;20024;-68
2022/06/30 03:50:47;;;;;;;13.65;11.75;;;19.40;99.90;;;;;;2112966;28;20032;-69
2022/06/30 03:51:51;;;;;;;15.88;13.25;;;19.40;99.90;;;;;;2112245;28;20695;-68
2022/06/30 03:52:52;;;;;;;13.70;12.40;;;19.50;99.90;;;;;;2112770;28;20020;-67
2022/06/30 03:53:56;;;;;;;13.50;12.20;;;19.40;99.90;;;;;;2112613;28;20080;-68
2022/06/30 03:54:57;;;;;;;13.00;11.70;;;19.40;99.90;;;;;;2114605;28;20042;-67
2022/06/30 03:55:57;;;;;;;13.95;12.55;;;19.40;99.90;;;;;;2114991;27;20110;-68
2022/06/30 03:56:58;;;;;;;13.45;12.02;;;19.40;99.90;;;;;;2114888;28;20031;-68
2022/06/30 03:57:59;;;;;;;13.60;12.10;;;19.40;99.90;;;;;;2114184;28;20198;-67
2022/06/30 03:59:00;;;;;;;12.57;11.27;;;19.50;99.90;;;;;;2114086;28;20030;-66
2022/06/30 04:00:01;;;;;;;13.48;12.15;;;19.40;99.90;;;;;;2113618;28;20019;-67
2022/06/30 04:01:04;;;;;;;12.90;11.60;;;19.40;99.90;;;;;;2114813;28;20039;-66
2022/06/30 04:02:06;;;;;;;13.27;11.85;;;19.40;99.90;;;;;;2114905;28;20107;-71
2022/06/30 04:03:06;;;;;;;12.52;11.20;;;19.50;99.90;;;;;;2114347;28;20024;-67
2022/06/30 04:04:07;;;;;;;13.63;11.38;;;19.50;99.90;;;;;;2105976;28;20509;-68
2022/06/30 04:05:08;;;;;;;12.25;11.02;;;19.50;99.90;;;;;;2114753;28;20031;-68
2022/06/30 04:06:09;;;;;;;12.27;11.07;;;19.50;99.90;;;;;;2115228;28;20425;-68
2022/06/30 04:07:09;;;;;;;12.75;11.45;;;19.50;99.90;;;;;;2114905;28;20497;-66
2022/06/30 04:08:10;;;;;;;12.10;10.90;;;19.50;99.90;;;;;;2115053;28;20123;-64
2022/06/30 04:09:11;;;;;;;11.48;10.27;;;19.50;99.90;;;;;;2115173;28;20127;-66
2022/06/30 04:10:13;;;;;;;13.00;11.70;;;19.50;99.90;;;;;;2114164;28;20069;-66
2022/06/30 04:11:14;;;;;;;11.27;10.18;;;19.60;99.90;;;;;;2105977;28;20061;-66
2022/06/30 04:12:15;;;;;;;12.00;10.90;;;19.60;99.90;;;;;;2114048;28;20035;-67
2022/06/30 04:13:15;;;;;;;11.85;10.65;;;19.60;99.90;;;;;;2114978;28;20015;-66
2022/06/30 04:14:16;;;;;;;12.32;10.40;;;19.60;99.90;;;;;;2114972;28;20422;-66
2022/06/30 04:15:17;;;;;;;13.25;11.85;;;19.60;99.90;;;;;;2115157;28;20026;-68
2022/06/30 04:16:17;;;;;;;12.48;11.27;;;19.60;99.90;;;;;;2114372;28;20485;-66
2022/06/30 04:17:18;;;;;;;13.32;11.50;;;19.70;99.90;;;;;;2114413;28;20022;-66
2022/06/30 04:18:19;;;;;;;12.95;11.65;;;19.70;99.90;;;;;;2114870;28;20032;-67
2022/06/30 04:19:20;;;;;;;11.63;10.52;;;19.70;99.90;;;;;;2114531;28;20039;-67
2022/06/30 04:20:21;;;;;;;11.75;10.55;;;19.70;99.90;;;;;;2114711;28;20036;-67
2022/06/30 04:21:22;;;;;;;11.85;10.35;;;19.70;99.90;;;;;;2113983;28;20043;-68
2022/06/30 04:22:23;;;;;;;11.68;10.57;;;19.70;99.90;;;;;;2114266;28;20032;-68
2022/06/30 04:23:23;;;;;;;23.17;20.17;;;19.70;99.90;;;;;;2114640;28;20034;-68
2022/06/30 04:24:24;;;;;;;26.80;22.10;;;19.70;99.90;;;;;;2114367;28;20042;-68
2022/06/30 04:25:25;;;;;;;30.15;25.70;;;19.70;99.90;;;;;;2114297;28;20109;-67
2022/06/30 04:26:26;;;;;;;25.20;21.25;;;19.80;99.90;;;;;;2114458;28;20063;-67
2022/06/30 04:27:27;;;;;;;20.80;18.70;;;19.80;99.90;;;;;;2105077;28;20443;-68
2022/06/30 04:28:27;;;;;;;18.83;16.63;;;19.80;99.90;;;;;;2105122;28;20061;-68
2022/06/30 04:29:31;;;;;;;16.02;14.43;;;19.90;99.90;;;;;;2113840;28;20035;-68
2022/06/30 04:33:10;;;;;;;13.60;12.13;;;19.90;99.90;;;;;;2113918;28;20049;-67
2022/06/30 04:34:11;;;;;;;13.93;12.43;;;19.90;99.90;;;;;;2114598;28;20542;-69
2022/06/30 04:35:14;;;;;;;12.32;11.02;;;20.00;99.90;;;;;;2114570;28;20046;-66
2022/06/30 04:36:15;;;;;;;11.93;10.82;;;20.00;99.90;;;;;;2114513;28;20032;-67
2022/06/30 04:37:16;;;;;;;12.40;11.10;;;20.00;99.90;;;;;;2113771;28;20028;-67
2022/06/30 04:38:17;;;;;;;13.48;11.43;;;20.00;99.90;;;;;;2113718;28;20073;-67
2022/06/30 04:39:17;;;;;;;12.13;10.93;;;20.10;99.90;;;;;;2114450;28;20115;-68
2022/06/30 04:41:37;;;;;;;16.95;12.80;;;20.10;99.90;;;;;;2113447;28;20051;-68
2022/06/30 04:42:38;;;;;;;21.38;16.13;;;20.10;99.90;;;;;;2113558;28;20061;-68
2022/06/30 04:43:38;;;;;;;21.05;15.35;;;20.10;99.90;;;;;;2105139;28;20460;-66
2022/06/30 04:44:39;;;;;;;22.08;16.25;;;20.10;99.90;;;;;;2105009;28;20024;-66
2022/06/30 04:45:40;;;;;;;20.20;15.50;;;20.10;99.90;;;;;;2114339;28;20515;-67
2022/06/30 04:46:41;;;;;;;17.75;14.27;;;20.10;99.90;;;;;;2114190;28;20035;-67
2022/06/30 04:47:42;;;;;;;19.85;14.98;;;20.10;99.90;;;;;;2114226;28;20110;-66
2022/06/30 04:48:43;;;;;;;24.10;16.83;;;20.10;99.90;;;;;;2104999;28;20039;-66
2022/06/30 04:49:43;;;;;;;22.88;15.52;;;20.10;99.90;;;;;;2104870;28;20063;-68
2022/06/30 04:50:44;;;;;;;24.75;16.92;;;20.10;99.90;;;;;;2114272;28;20028;-67
2022/06/30 04:51:45;;;;;;;30.05;18.60;;;20.10;99.90;;;;;;2114354;28;20020;-66
2022/06/30 04:52:46;;;;;;;26.88;16.77;;;20.10;99.90;;;;;;2114418;28;20063;-68
2022/06/30 04:53:47;;;;;;;27.55;17.52;;;20.10;99.90;;;;;;2114171;28;20024;-68
2022/06/30 04:54:47;;;;;;;26.80;17.52;;;20.10;99.90;;;;;;2114102;28;20081;-68
2022/06/30 04:55:49;;;;;;;25.33;16.83;;;20.10;99.90;;;;;;2114182;28;20560;-68
2022/06/30 04:56:49;;;;;;;24.55;16.45;;;20.10;99.90;;;;;;2114157;28;20028;-65
2022/06/30 04:57:50;;;;;;;26.92;18.08;;;20.10;99.90;;;;;;2114198;28;20100;-67
2022/06/30 04:58:54;;;;;;;23.10;16.55;;;20.10;99.90;;;;;;2113621;28;20024;-69
2022/06/30 04:59:55;;;;;;;24.23;16.48;;;20.10;99.90;;;;;;2104830;28;20544;-66
2022/06/30 05:00:56;;;;;;;23.65;17.20;;;20.10;99.90;;;;;;2113904;28;20036;-69
2022/06/30 05:01:56;;;;;;;25.50;17.17;;;20.10;99.90;;;;;;2115098;28;20024;-67
2022/06/30 05:02:57;;;;;;;27.70;17.60;;;20.10;99.90;;;;;;2114522;28;20103;-68
2022/06/30 05:03:58;;;;;;;33.95;21.35;;;20.10;99.90;;;;;;2114715;28;20031;-66
2022/06/30 05:04:59;;;;;;;31.83;20.13;;;20.10;99.90;;;;;;2115232;27;20019;-68
2022/06/30 05:06:00;;;;;;;39.92;23.70;;;20.10;99.90;;;;;;2114975;28;20032;-67
2022/06/30 05:07:01;;;;;;;36.92;22.30;;;20.10;99.90;;;;;;2106017;28;20126;-67
2022/06/30 05:08:01;;;;;;;36.63;22.20;;;20.10;99.90;;;;;;2115495;28;20027;-68
2022/06/30 05:09:02;;;;;;;34.22;21.73;;;20.10;99.90;;;;;;2115464;28;20028;-68
2022/06/30 05:10:06;;;;;;;33.15;20.63;;;20.10;99.90;;;;;;2115649;28;20029;-67
2022/06/30 05:11:06;;;;;;;31.65;20.52;;;20.10;99.90;;;;;;2119110;28;20024;-68
2022/06/30 05:12:08;;;;;;;33.20;20.52;;;20.10;99.90;;;;;;2120192;28;20063;-67
2022/06/30 05:13:09;;;;;;;33.53;20.38;;;20.10;99.90;;;;;;2117047;28;20039;-67
2022/06/30 05:14:10;;;;;;;34.40;21.83;;;20.10;99.90;;;;;;2115523;28;20106;-67
2022/06/30 05:15:11;;;;;;;34.05;21.15;;;20.10;99.90;;;;;;2116041;28;20730;-68
2022/06/30 05:16:12;;;;;;;34.70;20.70;;;20.10;99.90;;;;;;2115783;28;20023;-67
2022/06/30 05:17:12;;;;;;;33.88;21.35;;;20.10;99.90;;;;;;2115904;28;20373;-67